createdAt,value
2018-09-26T00:02:08.698Z,2.27
2018-09-26T00:04:48.504Z,2.73
2018-09-26T00:07:18.308Z,2.07
2018-09-26T00:09:48.090Z,2.20
2018-09-26T00:12:17.920Z,2.30
2018-09-26T00:14:47.660Z,3.03
2018-09-26T00:17:17.456Z,2.03
2018-09-26T00:19:47.204Z,2.20
2018-09-26T00:22:17.000Z,2.00
2018-09-26T00:24:46.752Z,2.13
2018-09-26T00:27:16.520Z,2.50
2018-09-26T00:29:46.293Z,2.17
2018-09-26T00:32:16.070Z,2.83
2018-09-26T00:34:45.854Z,2.43
2018-09-26T00:37:15.633Z,2.43
2018-09-26T00:39:45.582Z,2.43
2018-09-26T00:42:15.383Z,2.03
2018-09-26T00:44:45.155Z,2.37
2018-09-26T00:47:14.938Z,2.10
2018-09-26T00:49:44.746Z,2.37
2018-09-26T00:52:14.482Z,2.10
2018-09-26T00:54:44.232Z,2.40
2018-09-26T00:57:14.047Z,2.00
2018-09-26T00:59:43.773Z,2.00
2018-09-26T01:02:13.546Z,2.10
2018-09-26T01:04:43.340Z,1.80
2018-09-26T01:07:13.112Z,1.90
2018-09-26T01:09:42.903Z,1.87
2018-09-26T01:12:12.688Z,2.13
2018-09-26T01:14:42.855Z,1.90
2018-09-26T01:17:12.826Z,1.73
2018-09-26T01:19:42.540Z,1.83
2018-09-26T01:22:12.330Z,2.10
2018-09-26T01:24:42.142Z,2.23
2018-09-26T01:27:11.962Z,2.00
2018-09-26T01:29:41.687Z,1.90
2018-09-26T01:32:11.452Z,2.40
2018-09-26T01:34:41.216Z,2.30
2018-09-26T01:37:10.979Z,2.47
2018-09-26T01:39:40.743Z,2.33
2018-09-26T01:42:10.519Z,2.20
2018-09-26T01:44:40.271Z,2.00
2018-09-26T01:47:10.003Z,2.27
2018-09-26T01:49:39.849Z,2.40
2018-09-26T01:52:09.619Z,1.97
2018-09-26T01:54:39.459Z,2.20
2018-09-26T01:57:09.232Z,2.50
2018-09-26T01:59:38.978Z,2.07
2018-09-26T02:02:08.735Z,2.40
2018-09-26T02:04:38.507Z,2.27
2018-09-26T02:07:08.353Z,2.70
2018-09-26T02:09:38.111Z,2.43
2018-09-26T02:12:08.715Z,2.00
2018-09-26T02:14:38.463Z,2.50
2018-09-26T02:17:08.253Z,2.23
2018-09-26T02:19:38.003Z,2.47
2018-09-26T02:22:07.765Z,2.53
2018-09-26T02:24:37.621Z,1.70
2018-09-26T02:27:07.488Z,1.97
2018-09-26T02:29:37.257Z,2.00
2018-09-26T02:32:07.119Z,2.10
2018-09-26T02:34:36.887Z,2.33
2018-09-26T02:37:09.120Z,2.10
2018-09-26T02:39:39.958Z,2.13
2018-09-26T02:42:09.781Z,2.00
2018-09-26T02:44:39.515Z,2.13
2018-09-26T02:47:09.635Z,2.30
2018-09-26T02:49:39.410Z,2.00
2018-09-26T02:52:09.265Z,1.93
2018-09-26T02:54:39.027Z,2.10
2018-09-26T02:57:08.973Z,1.90
2018-09-26T02:59:38.696Z,2.20
2018-09-26T03:02:08.685Z,1.97
2018-09-26T03:04:38.491Z,2.53
2018-09-26T03:07:08.332Z,2.03
2018-09-26T03:09:38.108Z,2.10
2018-09-26T03:12:08.121Z,1.93
2018-09-26T03:14:37.913Z,2.30
2018-09-26T03:17:07.813Z,2.20
2018-09-26T03:19:37.657Z,2.30
2018-09-26T03:22:07.485Z,2.20
2018-09-26T03:24:37.274Z,1.93
2018-09-26T03:27:07.082Z,2.20
2018-09-26T03:29:36.893Z,2.30
2018-09-26T03:32:06.710Z,1.70
2018-09-26T03:34:36.561Z,2.30
2018-09-26T03:37:06.595Z,2.40
2018-09-26T03:39:36.387Z,2.40
2018-09-26T03:42:06.360Z,2.43
2018-09-26T03:44:36.105Z,2.30
2018-09-26T03:47:05.878Z,2.37
2018-09-26T03:49:35.634Z,2.00
2018-09-26T03:52:05.389Z,2.27
2018-09-26T03:54:35.155Z,2.67
2018-09-26T03:57:05.064Z,2.80
2018-09-26T03:59:35.711Z,3.30
2018-09-26T04:02:05.557Z,2.90
2018-09-26T04:04:35.423Z,2.60
2018-09-26T04:07:05.265Z,2.60
2018-09-26T04:09:35.014Z,2.57
2018-09-26T04:12:04.785Z,2.97
2018-09-26T04:14:34.562Z,3.20
2018-09-26T04:17:04.492Z,3.00
2018-09-26T04:19:34.319Z,2.77
2018-09-26T04:22:04.216Z,2.50
2018-09-26T04:24:33.961Z,2.80
2018-09-26T04:27:03.851Z,2.97
2018-09-26T04:29:33.763Z,3.13
2018-09-26T04:32:03.710Z,3.10
2018-09-26T04:34:33.483Z,3.03
2018-09-26T04:37:03.359Z,3.00
2018-09-26T04:39:33.166Z,2.57
2018-09-26T04:42:03.063Z,2.03
2018-09-26T04:44:32.826Z,2.30
2018-09-26T04:47:02.607Z,2.60
2018-09-26T04:49:32.334Z,2.63
2018-09-26T04:52:02.374Z,2.67
2018-09-26T04:54:32.144Z,2.63
2018-09-26T04:57:01.872Z,2.70
2018-09-26T04:59:31.650Z,2.30
2018-09-26T05:02:01.764Z,2.50
2018-09-26T05:04:31.499Z,2.10
2018-09-26T05:07:01.272Z,2.10
2018-09-26T05:09:31.026Z,2.13
2018-09-26T05:12:00.818Z,2.33
2018-09-26T05:14:30.597Z,2.40
2018-09-26T05:17:00.352Z,2.40
2018-09-26T05:19:30.156Z,2.20
2018-09-26T05:21:59.900Z,2.53
2018-09-26T05:24:29.626Z,2.33
2018-09-26T05:26:59.394Z,2.40
2018-09-26T05:29:29.164Z,2.30
2018-09-26T05:31:58.924Z,2.67
2018-09-26T05:34:28.826Z,2.40
2018-09-26T05:36:58.612Z,2.30
2018-09-26T05:39:28.450Z,2.70
2018-09-26T05:41:58.206Z,2.93
2018-09-26T05:44:27.936Z,2.30
2018-09-26T05:46:57.744Z,2.67
2018-09-26T05:49:27.532Z,2.40
2018-09-26T05:51:57.273Z,3.03
2018-09-26T05:54:27.020Z,3.17
2018-09-26T05:56:56.810Z,2.77
2018-09-26T05:59:26.755Z,3.40
2018-09-26T06:01:56.728Z,3.00
2018-09-26T06:04:26.502Z,3.10
2018-09-26T06:06:56.288Z,2.90
2018-09-26T06:09:26.118Z,2.97
2018-09-26T06:11:55.859Z,3.10
2018-09-26T06:14:25.797Z,2.87
2018-09-26T06:16:55.530Z,2.37
2018-09-26T06:19:25.768Z,2.50
2018-09-26T06:21:55.508Z,2.80
2018-09-26T06:24:25.306Z,2.87
2018-09-26T06:26:55.252Z,2.83
2018-09-26T06:29:25.238Z,2.87
2018-09-26T06:31:55.126Z,2.93
2018-09-26T06:34:24.841Z,3.03
2018-09-26T06:36:54.554Z,2.37
2018-09-26T06:39:24.325Z,3.00
2018-09-26T06:41:54.186Z,3.20
2018-09-26T06:44:24.028Z,3.00
2018-09-26T06:46:54.044Z,3.43
2018-09-26T06:49:23.835Z,3.30
2018-09-26T06:51:53.596Z,4.17
2018-09-26T06:54:23.364Z,3.27
2018-09-26T06:56:53.256Z,2.90
2018-09-26T06:59:23.026Z,3.70
2018-09-26T07:01:52.776Z,3.17
2018-09-26T07:04:22.527Z,2.83
2018-09-26T07:06:52.299Z,3.50
2018-09-26T07:09:22.043Z,2.87
2018-09-26T07:11:51.878Z,2.67
2018-09-26T07:15:50.998Z,3.20
2018-09-26T07:18:20.788Z,2.63
2018-09-26T07:20:50.551Z,3.13
2018-09-26T07:23:20.361Z,2.63
2018-09-26T07:25:50.302Z,2.97
2018-09-26T07:28:20.095Z,2.97
2018-09-26T07:30:49.861Z,2.87
2018-09-26T07:33:19.631Z,2.70
2018-09-26T07:35:49.397Z,2.77
2018-09-26T07:38:19.755Z,2.90
2018-09-26T07:40:50.495Z,2.98
2018-09-26T07:43:21.091Z,2.83
2018-09-26T07:45:51.821Z,3.30
2018-09-26T07:48:22.369Z,3.20
2018-09-26T07:50:52.838Z,3.40
2018-09-26T07:53:23.153Z,3.33
2018-09-26T07:55:53.475Z,2.95
2018-09-26T07:58:23.751Z,3.08
2018-09-26T08:00:54.091Z,3.08
2018-09-26T08:03:24.412Z,2.95
2018-09-26T08:05:54.776Z,2.95
2018-09-26T08:08:25.243Z,3.80
2018-09-26T08:10:55.591Z,3.25
2018-09-26T08:13:25.916Z,3.33
2018-09-26T08:15:56.261Z,3.37
2018-09-26T08:18:26.597Z,2.80
2018-09-26T08:20:56.590Z,2.97
2018-09-26T08:23:26.374Z,2.77
2018-09-26T08:25:56.142Z,3.10
2018-09-26T08:28:25.920Z,3.20
2018-09-26T08:30:55.686Z,2.80
2018-09-26T08:33:25.478Z,2.83
2018-09-26T08:35:55.250Z,2.97
2018-09-26T08:38:25.028Z,3.20
2018-09-26T08:40:54.907Z,2.90
2018-09-26T08:43:25.050Z,3.57
2018-09-26T08:45:54.831Z,3.73
2018-09-26T08:48:24.611Z,3.10
2018-09-26T08:50:54.379Z,3.07
2018-09-26T08:53:24.253Z,3.40
2018-09-26T08:55:54.086Z,3.60
2018-09-26T08:58:23.825Z,3.13
2018-09-26T09:00:54.757Z,3.00
2018-09-26T09:03:24.502Z,3.47
2018-09-26T09:05:54.351Z,3.30
2018-09-26T09:08:24.071Z,3.93
2018-09-26T09:10:53.843Z,3.30
2018-09-26T09:13:23.589Z,3.40
2018-09-26T09:15:53.361Z,3.70
2018-09-26T09:18:23.141Z,3.40
2018-09-26T09:20:52.905Z,3.70
2018-09-26T09:23:22.646Z,3.40
2018-09-26T09:25:52.395Z,3.60
2018-09-26T09:28:22.143Z,3.67
2018-09-26T09:30:52.570Z,3.73
2018-09-26T09:33:22.314Z,3.40
2018-09-26T09:35:52.046Z,4.03
2018-09-26T09:38:21.798Z,3.37
2018-09-26T09:40:51.776Z,3.40
2018-09-26T09:43:21.926Z,3.73
2018-09-26T09:45:51.829Z,3.70
2018-09-26T09:48:21.654Z,3.67
2018-09-26T09:50:51.402Z,3.43
2018-09-26T09:53:21.288Z,3.70
2018-09-26T09:55:52.233Z,3.97
2018-09-26T09:58:22.620Z,3.60
2018-09-26T10:00:57.578Z,3.93
2018-09-26T10:03:27.350Z,4.00
2018-09-26T10:05:57.136Z,4.50
2018-09-26T10:08:26.892Z,3.77
2018-09-26T10:10:56.632Z,3.70
2018-09-26T10:13:26.404Z,4.07
2018-09-26T10:15:56.182Z,3.80
2018-09-26T10:18:25.994Z,4.40
2018-09-26T10:20:55.632Z,4.20
2018-09-26T10:23:25.720Z,4.13
2018-09-26T10:25:55.398Z,3.93
2018-09-26T10:28:25.089Z,4.20
2018-09-26T10:30:54.710Z,3.97
2018-09-26T10:33:24.366Z,4.27
2018-09-26T10:35:54.170Z,4.90
2018-09-26T10:38:23.905Z,4.20
2018-09-26T10:40:54.033Z,4.50
2018-09-26T10:43:23.923Z,4.13
2018-09-26T10:45:53.636Z,4.50
2018-09-26T10:48:23.295Z,4.80
2018-09-26T10:50:52.973Z,4.30
2018-09-26T10:53:22.886Z,4.27
2018-09-26T10:55:52.543Z,4.50
2018-09-26T10:58:22.305Z,4.27
2018-09-26T11:00:52.036Z,4.17
2018-09-26T11:03:21.739Z,4.57
2018-09-26T11:05:51.415Z,4.70
2018-09-26T11:08:21.188Z,4.37
2018-09-26T11:10:51.119Z,4.30
2018-09-26T11:13:21.760Z,3.93
2018-09-26T11:15:51.486Z,4.80
2018-09-26T11:18:21.250Z,4.13
2018-09-26T11:20:51.222Z,3.97
2018-09-26T11:23:20.853Z,4.40
2018-09-26T11:25:50.566Z,4.10
2018-09-26T11:28:20.239Z,4.00
2018-09-26T11:30:50.149Z,4.03
2018-09-26T11:33:19.901Z,4.20
2018-09-26T11:35:49.705Z,4.07
2018-09-26T11:38:19.462Z,4.40
2018-09-26T11:40:49.259Z,4.30
2018-09-26T11:43:27.468Z,4.43
2018-09-26T11:45:57.241Z,4.50
2018-09-26T11:48:26.921Z,4.37
2018-09-26T11:51:05.485Z,4.30
2018-09-26T11:53:35.151Z,4.17
2018-09-26T11:56:04.890Z,4.00
2018-09-26T11:58:34.708Z,4.40
2018-09-26T12:01:04.563Z,4.30
2018-09-26T12:03:34.192Z,4.03
2018-09-26T12:06:04.080Z,4.13
2018-09-26T12:08:33.796Z,3.80
2018-09-26T12:11:03.504Z,3.87
2018-09-26T12:13:33.213Z,4.27
2018-09-26T12:16:02.887Z,3.70
2018-09-26T12:18:32.561Z,4.17
2018-09-26T12:21:03.117Z,3.55
2018-09-26T12:23:32.791Z,4.23
2018-09-26T12:26:03.105Z,4.30
2018-09-26T12:28:33.281Z,4.55
2018-09-26T12:31:03.571Z,4.10
2018-09-26T12:33:33.803Z,4.25
2018-09-26T12:36:04.420Z,4.33
2018-09-26T12:38:34.849Z,3.87
2018-09-26T12:41:05.205Z,4.20
2018-09-26T12:43:35.470Z,4.25
2018-09-26T12:46:05.770Z,3.80
2018-09-26T12:48:36.192Z,4.40
2018-09-26T12:51:06.779Z,4.72
2018-09-26T12:53:37.011Z,4.60
2018-09-26T12:56:07.468Z,4.70
2018-09-26T12:58:37.752Z,4.67
2018-09-26T13:01:09.768Z,4.78
2018-09-26T13:03:40.208Z,4.78
2018-09-26T13:06:10.475Z,4.35
2018-09-26T13:08:41.225Z,4.83
2018-09-26T13:11:11.547Z,4.30
2018-09-26T13:13:41.816Z,3.90
2018-09-26T13:16:12.262Z,4.55
2018-09-26T13:18:42.699Z,3.98
2018-09-26T13:21:13.058Z,4.35
2018-09-26T13:23:43.306Z,4.30
2018-09-26T13:26:13.662Z,4.37
2018-09-26T13:28:44.198Z,3.85
2018-09-26T13:31:14.463Z,3.70
2018-09-26T13:33:44.736Z,4.20
2018-09-26T13:36:15.022Z,4.20
2018-09-26T13:38:45.454Z,3.87
2018-09-26T13:41:15.679Z,3.58
2018-09-26T13:43:45.951Z,3.35
2018-09-26T13:46:16.297Z,3.72
2018-09-26T13:48:46.660Z,3.65
2018-09-26T13:51:16.936Z,3.40
2018-09-26T13:53:47.188Z,3.42
2018-09-26T13:56:17.510Z,3.22
2018-09-26T13:58:47.873Z,3.40
2018-09-26T14:01:18.077Z,3.33
2018-09-26T14:03:48.465Z,4.00
2018-09-26T14:06:18.680Z,3.85
2018-09-26T14:08:49.306Z,3.47
2018-09-26T14:11:19.860Z,3.47
2018-09-26T14:13:50.113Z,3.47
2018-09-26T14:16:20.352Z,3.30
2018-09-26T14:18:50.623Z,3.20
2018-09-26T14:21:21.166Z,3.40
2018-09-26T14:23:51.396Z,2.98
2018-09-26T14:26:21.664Z,3.12
2018-09-26T14:28:52.061Z,3.70
2018-09-26T14:31:22.304Z,3.08
2018-09-26T14:33:52.592Z,3.60
2018-09-26T14:36:23.885Z,3.30
2018-09-26T14:38:54.266Z,3.33
2018-09-26T14:41:24.662Z,3.60
2018-09-26T14:43:55.086Z,3.30
2018-09-26T14:46:25.376Z,3.47
2018-09-26T14:48:55.574Z,3.65
2018-09-26T14:51:25.941Z,3.67
2018-09-26T14:53:56.190Z,4.35
2018-09-26T14:56:26.551Z,3.67
2018-09-26T14:58:56.910Z,3.62
2018-09-26T15:01:27.124Z,3.65
2018-09-26T15:03:57.408Z,3.92
2018-09-26T15:06:27.652Z,3.80
2018-09-26T15:08:57.881Z,3.83
2018-09-26T15:11:28.151Z,3.83
2018-09-26T15:13:58.382Z,3.25
2018-09-26T15:16:28.652Z,3.80
2018-09-26T15:18:58.857Z,4.03
2018-09-26T15:21:29.168Z,4.05
2018-09-26T15:23:59.403Z,3.33
2018-09-26T15:26:29.611Z,3.85
2018-09-26T15:28:59.833Z,3.52
2018-09-26T15:31:30.090Z,3.72
2018-09-26T15:34:00.403Z,3.70
2018-09-26T15:36:30.636Z,3.25
2018-09-26T15:39:00.893Z,3.05
2018-09-26T15:41:31.182Z,3.20
2018-09-26T15:44:01.579Z,3.55
2018-09-26T15:46:32.219Z,3.65
2018-09-26T15:49:02.445Z,3.50
2018-09-26T15:51:32.723Z,3.67
2018-09-26T15:54:02.960Z,2.87
2018-09-26T15:56:33.189Z,3.00
2018-09-26T15:59:03.392Z,3.80
2018-09-26T16:01:33.644Z,3.33
2018-09-26T16:04:03.862Z,3.35
2018-09-26T16:06:34.094Z,3.10
2018-09-26T16:09:05.334Z,3.30
2018-09-26T16:11:35.604Z,3.08
2018-09-26T16:14:05.877Z,3.12
2018-09-26T16:16:36.291Z,2.75
2018-09-26T16:19:06.578Z,3.52
2018-09-26T16:21:36.894Z,3.25
2018-09-26T16:24:07.143Z,3.05
2018-09-26T16:26:37.468Z,4.10
2018-09-26T16:29:08.267Z,3.58
2018-09-26T16:31:39.756Z,4.40
2018-09-26T16:34:10.185Z,4.50
2018-09-26T16:36:40.622Z,4.47
2018-09-26T16:39:13.844Z,4.62
2018-09-26T16:41:44.743Z,4.93
2018-09-26T16:44:14.505Z,4.67
2018-09-26T16:46:44.590Z,4.60
2018-09-26T16:49:14.267Z,4.80
2018-09-26T16:51:43.907Z,4.67
2018-09-26T16:54:13.703Z,4.20
2018-09-26T16:56:43.681Z,4.17
2018-09-26T16:59:14.398Z,3.93
2018-09-26T17:01:44.243Z,3.93
2018-09-26T17:04:14.016Z,4.13
2018-09-26T17:06:43.943Z,3.93
2018-09-26T17:09:13.856Z,4.27
2018-09-26T17:11:43.603Z,4.63
2018-09-26T17:14:13.462Z,4.33
2018-09-26T17:16:43.497Z,4.10
2018-09-26T17:19:13.357Z,4.30
2018-09-26T17:22:17.581Z,4.10
2018-09-26T17:24:47.445Z,3.30
2018-09-26T17:27:17.219Z,3.73
2018-09-26T17:29:47.043Z,3.77
2018-09-26T17:32:16.814Z,3.50
2018-09-26T17:34:46.767Z,4.13
2018-09-26T17:37:16.623Z,3.73
2018-09-26T17:39:46.595Z,4.17
2018-09-26T17:42:16.351Z,4.23
2018-09-26T17:44:46.266Z,3.80
2018-09-26T17:47:15.996Z,3.60
2018-09-26T17:49:45.667Z,4.03
2018-09-26T17:52:15.377Z,3.30
2018-09-26T17:54:45.249Z,3.57
2018-09-26T17:57:15.195Z,3.10
2018-09-26T17:59:44.947Z,3.33
2018-09-26T18:02:14.705Z,3.27
2018-09-26T18:04:44.503Z,3.20
2018-09-26T18:07:14.199Z,3.53
2018-09-26T18:09:43.896Z,3.10
2018-09-26T18:12:13.583Z,3.37
2018-09-26T18:14:43.283Z,3.20
2018-09-26T18:17:13.130Z,3.13
2018-09-26T18:19:43.025Z,2.90
2018-09-26T18:22:12.859Z,3.10
2018-09-26T18:24:42.763Z,3.37
2018-09-26T18:27:12.558Z,3.30
2018-09-26T18:29:42.248Z,3.53
2018-09-26T18:32:11.947Z,3.57
2018-09-26T18:34:41.656Z,3.10
2018-09-26T18:37:11.458Z,2.80
2018-09-26T18:39:41.146Z,3.33
2018-09-26T18:42:10.894Z,3.00
2018-09-26T18:44:40.701Z,3.70
2018-09-26T18:47:10.802Z,3.83
2018-09-26T18:49:40.505Z,3.90
2018-09-26T18:52:10.834Z,4.00
2018-09-26T18:54:40.725Z,3.87
2018-09-26T18:57:10.901Z,4.13
2018-09-26T18:59:40.753Z,3.90
2018-09-26T19:02:10.788Z,3.40
2018-09-26T19:04:40.613Z,4.60
2018-09-26T19:07:10.516Z,4.10
2018-09-26T19:09:40.261Z,4.33
2018-09-26T19:12:10.131Z,4.40
2018-09-26T19:14:39.949Z,4.00
2018-09-26T19:17:09.672Z,4.13
2018-09-26T19:19:40.745Z,4.90
2018-09-26T19:22:10.517Z,3.90
2018-09-26T19:24:40.300Z,3.50
2018-09-26T19:27:11.188Z,4.30
2018-09-26T19:29:41.099Z,4.43
2018-09-26T19:32:10.822Z,3.80
2018-09-26T19:34:40.569Z,3.97
2018-09-26T19:37:10.248Z,3.80
2018-09-26T19:39:41.390Z,4.30
2018-09-26T19:42:11.220Z,4.10
2018-09-26T19:44:40.976Z,4.60
2018-09-26T19:47:10.716Z,5.13
2018-09-26T19:49:40.633Z,4.50
2018-09-26T19:52:10.334Z,4.50
2018-09-26T19:54:40.272Z,4.27
2018-09-26T19:57:09.948Z,4.33
2018-09-26T19:59:40.389Z,4.73
2018-09-26T20:02:10.193Z,4.67
2018-09-26T20:04:40.920Z,5.07
2018-09-26T20:07:10.614Z,4.70
2018-09-26T20:09:40.313Z,4.80
2018-09-26T20:12:10.108Z,5.10
2018-09-26T20:14:39.835Z,5.03
2018-09-26T20:17:09.553Z,4.90
2018-09-26T20:19:40.048Z,5.30
2018-09-26T20:22:09.960Z,4.93
2018-09-26T20:24:39.757Z,5.10
2018-09-26T20:27:09.698Z,5.13
2018-09-26T20:29:39.711Z,5.03
2018-09-26T20:32:09.492Z,4.83
2018-09-26T20:34:39.388Z,4.97
2018-09-26T20:37:09.138Z,4.87
2018-09-26T20:39:38.934Z,4.83
2018-09-26T20:42:09.154Z,5.57
2018-09-26T20:44:38.978Z,5.47
2018-09-26T20:47:08.648Z,5.23
2018-09-26T20:49:38.279Z,5.57
2018-09-26T20:52:08.229Z,5.20
2018-09-26T20:54:37.936Z,5.13
2018-09-26T20:57:07.696Z,5.30
2018-09-26T20:59:37.688Z,5.63
2018-09-26T21:02:07.488Z,5.70
2018-09-26T21:04:37.166Z,5.70
2018-09-26T21:07:07.363Z,5.27
2018-09-26T21:09:37.215Z,5.63
2018-09-26T21:12:06.903Z,5.63
2018-09-26T21:14:36.578Z,5.87
2018-09-26T21:17:06.287Z,5.50
2018-09-26T21:19:35.979Z,6.10
2018-09-26T21:22:05.659Z,5.80
2018-09-26T21:24:35.355Z,5.47
2018-09-26T21:27:05.038Z,6.50
2018-09-26T21:29:34.677Z,6.03
2018-09-26T21:32:04.716Z,6.37
2018-09-26T21:34:34.436Z,6.10
2018-09-26T21:37:04.088Z,6.53
2018-09-26T21:39:33.759Z,6.53
2018-09-26T21:42:03.403Z,6.10
2018-09-26T21:44:34.069Z,6.13
2018-09-26T21:47:03.943Z,6.30
2018-09-26T21:49:33.581Z,5.60
2018-09-26T21:52:03.242Z,6.60
2018-09-26T21:54:32.933Z,5.93
2018-09-26T21:57:02.756Z,6.27
2018-09-26T21:59:32.444Z,5.87
2018-09-26T22:02:02.868Z,5.90
2018-09-26T22:04:33.229Z,6.20
2018-09-26T22:07:03.863Z,6.03
2018-09-26T22:09:34.165Z,6.33
2018-09-26T22:12:04.511Z,6.30
2018-09-26T22:14:34.800Z,6.00
2018-09-26T22:17:05.127Z,5.50
2018-09-26T22:19:35.406Z,5.30
2018-09-26T22:22:05.695Z,6.50
2018-09-26T22:24:36.041Z,5.43
2018-09-26T22:27:06.423Z,4.90
2018-09-26T22:29:36.712Z,5.50
2018-09-26T22:32:07.009Z,5.53
2018-09-26T22:34:37.337Z,6.37
2018-09-26T22:37:07.692Z,6.83
2018-09-26T22:39:38.056Z,6.57
2018-09-26T22:42:08.367Z,6.73
2018-09-26T22:44:38.686Z,6.43
2018-09-26T22:47:08.948Z,6.70
2018-09-26T22:49:39.247Z,7.07
2018-09-26T22:52:09.572Z,7.30
2018-09-26T22:54:39.908Z,6.10
2018-09-26T22:57:10.231Z,6.80
2018-09-26T22:59:40.735Z,6.40
2018-09-26T23:02:11.073Z,6.07
2018-09-26T23:04:41.345Z,6.50
2018-09-26T23:07:11.937Z,7.30
2018-09-26T23:09:42.498Z,6.80
2018-09-26T23:12:12.885Z,6.50
2018-09-26T23:14:43.203Z,6.60
2018-09-26T23:17:13.483Z,6.90
2018-09-26T23:19:43.771Z,6.40
2018-09-26T23:22:14.044Z,6.67
2018-09-26T23:24:44.309Z,6.50
2018-09-26T23:27:14.615Z,6.93
2018-09-26T23:29:44.899Z,6.63
2018-09-26T23:32:15.149Z,6.67
2018-09-26T23:34:45.493Z,6.67
2018-09-26T23:37:15.766Z,6.77
2018-09-26T23:39:46.074Z,6.63
2018-09-26T23:42:16.457Z,7.60
2018-09-26T23:44:46.743Z,7.37
2018-09-26T23:47:17.015Z,7.27
2018-09-26T23:49:47.323Z,7.30
2018-09-26T23:52:17.829Z,7.13
2018-09-26T23:54:48.227Z,7.13
2018-09-26T23:57:18.585Z,7.20
2018-09-26T23:59:49.719Z,7.03
